createdAt,value
2022-08-28T00:01:53.766Z,19.23
2022-08-28T00:04:57.020Z,19.00
2022-08-28T00:08:00.949Z,22.43
2022-08-28T00:11:05.213Z,19.30
2022-08-28T00:14:11.319Z,17.23
2022-08-28T00:17:14.660Z,18.73
2022-08-28T00:20:19.911Z,17.70
2022-08-28T00:23:24.113Z,16.07
2022-08-28T00:26:46.893Z,16.10
2022-08-28T00:29:51.013Z,17.33
2022-08-28T00:32:56.676Z,16.47
2022-08-28T00:36:00.918Z,26.10
2022-08-28T00:39:05.072Z,18.40
2022-08-28T00:42:10.202Z,19.57
2022-08-28T00:45:15.349Z,25.20
2022-08-28T00:48:18.125Z,28.17
2022-08-28T00:51:39.834Z,27.27
2022-08-28T00:54:59.187Z,31.13
2022-08-28T00:58:03.365Z,33.30
2022-08-28T01:01:07.950Z,26.53
2022-08-28T01:04:16.483Z,31.83
2022-08-28T01:07:19.708Z,29.40
2022-08-28T01:10:26.300Z,30.43
2022-08-28T01:13:30.225Z,29.20
2022-08-28T01:16:34.755Z,32.37
2022-08-28T01:19:40.373Z,28.00
2022-08-28T01:22:51.856Z,29.43
2022-08-28T01:25:56.155Z,28.50
2022-08-28T01:29:00.863Z,25.43
2022-08-28T01:32:05.203Z,25.70
2022-08-28T01:35:19.131Z,28.77
2022-08-28T01:38:26.756Z,25.00
2022-08-28T01:41:31.277Z,29.77
2022-08-28T01:44:34.310Z,28.90
2022-08-28T01:47:37.007Z,29.20
2022-08-28T01:50:41.087Z,25.53
2022-08-28T01:53:45.345Z,30.63
2022-08-28T01:56:51.012Z,25.43
2022-08-28T01:59:54.820Z,26.20
2022-08-28T02:03:00.869Z,24.17
2022-08-28T02:06:03.941Z,22.80
2022-08-28T02:09:07.337Z,24.20
2022-08-28T02:12:18.695Z,28.43
2022-08-28T02:15:23.540Z,26.87
2022-08-28T02:18:26.356Z,26.97
2022-08-28T02:21:29.550Z,21.83
2022-08-28T02:24:32.243Z,23.70
2022-08-28T02:27:36.870Z,25.00
2022-08-28T02:30:40.119Z,23.57
2022-08-28T02:33:45.007Z,36.23
2022-08-28T02:36:48.108Z,40.17
2022-08-28T02:39:51.577Z,41.87
2022-08-28T02:42:55.697Z,52.50
2022-08-28T02:45:58.824Z,43.20
2022-08-28T02:49:01.633Z,33.73
2022-08-28T02:52:07.087Z,24.60
2022-08-28T02:55:12.450Z,25.50
2022-08-28T02:58:16.494Z,20.03
2022-08-28T03:01:19.612Z,19.40
2022-08-28T03:04:22.718Z,23.37
2022-08-28T03:07:25.386Z,17.90
2022-08-28T03:10:28.427Z,20.60
2022-08-28T03:13:32.586Z,19.70
2022-08-28T03:16:35.569Z,16.23
2022-08-28T03:19:38.678Z,20.63
2022-08-28T03:22:59.718Z,15.93
2022-08-28T03:26:06.211Z,19.80
2022-08-28T03:29:10.573Z,21.10
2022-08-28T03:32:13.552Z,20.17
2022-08-28T03:35:16.635Z,27.07
2022-08-28T03:38:20.362Z,40.93
2022-08-28T03:41:25.402Z,65.87
2022-08-28T03:44:29.442Z,72.60
2022-08-28T03:47:32.475Z,43.40
2022-08-28T03:50:36.511Z,52.13
2022-08-28T03:53:39.867Z,62.17
2022-08-28T03:56:43.433Z,55.77
2022-08-28T03:59:48.025Z,62.40
2022-08-28T04:02:51.309Z,56.50
2022-08-28T04:05:54.303Z,46.57
2022-08-28T04:09:00.329Z,75.93
2022-08-28T04:12:03.938Z,60.67
2022-08-28T04:15:09.779Z,81.93
2022-08-28T04:18:13.725Z,86.63
2022-08-28T04:21:19.238Z,62.93
2022-08-28T04:24:22.342Z,56.43
2022-08-28T04:27:25.050Z,52.03
2022-08-28T04:30:29.140Z,47.53
2022-08-28T04:33:33.132Z,50.53
2022-08-28T04:36:36.870Z,56.63
2022-08-28T04:39:39.580Z,51.37
2022-08-28T04:42:43.071Z,43.87
2022-08-28T04:45:47.287Z,43.37
2022-08-28T04:48:50.095Z,38.03
2022-08-28T04:51:52.874Z,35.47
2022-08-28T04:54:55.814Z,34.60
2022-08-28T04:57:58.791Z,31.57
2022-08-28T05:01:07.086Z,33.60
2022-08-28T05:04:11.339Z,34.53
2022-08-28T05:07:14.022Z,36.77
2022-08-28T05:10:16.907Z,35.97
2022-08-28T05:13:20.771Z,38.20
2022-08-28T05:16:24.956Z,31.67
2022-08-28T05:19:29.265Z,31.17
2022-08-28T05:22:32.536Z,26.93
2022-08-28T05:25:37.579Z,32.90
2022-08-28T05:28:40.979Z,30.00
2022-08-28T05:31:46.342Z,34.80
2022-08-28T05:34:49.351Z,31.20
2022-08-28T05:37:53.465Z,38.47
2022-08-28T05:40:56.208Z,38.90
2022-08-28T05:44:00.172Z,45.63
2022-08-28T05:47:04.718Z,40.83
2022-08-28T05:50:08.937Z,29.70
2022-08-28T05:53:11.635Z,33.70
2022-08-28T05:56:16.960Z,32.27
2022-08-28T05:59:19.889Z,29.33
2022-08-28T06:02:24.049Z,26.53
2022-08-28T06:05:27.123Z,22.57
2022-08-28T06:08:31.359Z,25.07
2022-08-28T06:11:34.748Z,23.40
2022-08-28T06:14:37.723Z,20.87
2022-08-28T06:17:41.947Z,18.43
2022-08-28T06:20:46.731Z,18.60
2022-08-28T06:23:49.871Z,15.00
2022-08-28T06:26:53.030Z,18.03
2022-08-28T06:29:59.899Z,19.63
2022-08-28T06:33:04.631Z,15.90
2022-08-28T06:36:08.262Z,15.83
2022-08-28T06:39:13.677Z,12.20
2022-08-28T06:42:16.418Z,11.60
2022-08-28T06:45:20.249Z,9.33
2022-08-28T06:48:27.448Z,12.00
2022-08-28T06:51:30.239Z,12.10
2022-08-28T06:54:33.000Z,15.77
2022-08-28T06:57:36.353Z,15.40
2022-08-28T07:00:40.380Z,12.70
2022-08-28T07:03:45.800Z,14.70
2022-08-28T07:06:54.196Z,12.00
2022-08-28T07:09:57.863Z,12.67
2022-08-28T07:13:00.873Z,15.10
2022-08-28T07:16:04.118Z,12.30
2022-08-28T07:19:11.200Z,14.17
2022-08-28T07:22:14.179Z,13.60
2022-08-28T07:25:17.660Z,10.73
2022-08-28T07:28:22.021Z,10.07
2022-08-28T07:31:27.983Z,11.53
2022-08-28T07:34:32.343Z,11.57
2022-08-28T07:37:35.090Z,11.63
2022-08-28T07:40:38.021Z,8.97
2022-08-28T07:43:58.270Z,9.57
2022-08-28T07:47:03.989Z,11.80
2022-08-28T07:50:08.760Z,8.67
2022-08-28T07:53:11.480Z,12.50
2022-08-28T07:56:14.455Z,10.80
2022-08-28T07:59:19.326Z,9.60
2022-08-28T08:02:22.299Z,9.23
2022-08-28T08:05:26.457Z,12.23
2022-08-28T08:08:29.883Z,10.70
2022-08-28T08:11:33.559Z,10.30
2022-08-28T08:14:36.807Z,11.33
2022-08-28T08:17:40.167Z,14.60
2022-08-28T08:20:44.217Z,12.10
2022-08-28T08:23:48.236Z,12.13
2022-08-28T08:27:00.311Z,11.90
2022-08-28T08:30:03.636Z,14.63
2022-08-28T08:33:06.537Z,9.70
2022-08-28T08:36:12.371Z,9.87
2022-08-28T08:39:36.985Z,9.60
2022-08-28T08:42:40.180Z,9.10
2022-08-28T08:45:46.062Z,9.77
2022-08-28T08:48:49.042Z,10.03
2022-08-28T08:52:00.407Z,10.27
2022-08-28T08:55:17.577Z,8.40
2022-08-28T08:58:26.695Z,7.00
2022-08-28T09:01:33.980Z,10.43
2022-08-28T09:04:46.412Z,7.17
2022-08-28T09:07:56.878Z,9.27
2022-08-28T09:11:08.087Z,9.57
2022-08-28T09:14:20.628Z,8.57
2022-08-28T09:17:34.493Z,9.50
2022-08-28T09:20:37.361Z,10.63
2022-08-28T09:23:41.560Z,10.57
2022-08-28T09:26:53.003Z,11.53
2022-08-28T09:29:59.356Z,7.70
2022-08-28T09:33:10.374Z,7.97
2022-08-28T09:36:30.182Z,9.17
2022-08-28T09:39:35.817Z,8.60
2022-08-28T09:42:56.229Z,8.23
2022-08-28T09:46:02.726Z,8.53
2022-08-28T09:49:12.017Z,8.03
2022-08-28T09:52:25.105Z,9.37
2022-08-28T09:55:36.209Z,7.03
2022-08-28T09:58:43.311Z,8.03
2022-08-28T10:01:58.974Z,8.17
2022-08-28T10:05:05.460Z,10.53
2022-08-28T10:08:23.382Z,8.77
2022-08-28T10:11:34.115Z,13.20
2022-08-28T10:14:47.700Z,8.07
2022-08-28T10:18:08.459Z,10.97
2022-08-28T10:21:18.113Z,8.67
2022-08-28T10:24:42.034Z,11.33
2022-08-28T10:28:00.520Z,7.87
2022-08-28T10:31:10.790Z,11.23
2022-08-28T10:34:31.095Z,7.57
2022-08-28T10:37:46.469Z,11.83
2022-08-28T10:40:56.750Z,12.40
2022-08-28T10:44:03.523Z,7.27
2022-08-28T10:47:10.061Z,10.30
2022-08-28T10:50:19.039Z,7.33
2022-08-28T10:53:27.938Z,7.23
2022-08-28T10:56:39.585Z,6.73
2022-08-28T10:59:49.149Z,8.17
2022-08-28T11:02:55.637Z,9.27
2022-08-28T11:06:06.163Z,8.03
2022-08-28T11:09:27.964Z,8.73
2022-08-28T11:12:39.031Z,8.73
2022-08-28T11:15:50.342Z,9.87
2022-08-28T11:19:17.359Z,7.43
2022-08-28T11:22:24.792Z,9.60
2022-08-28T11:25:34.049Z,9.53
2022-08-28T11:28:47.721Z,5.60
2022-08-28T11:32:36.485Z,7.73
2022-08-28T11:35:50.424Z,9.37
2022-08-28T11:39:20.979Z,8.37
2022-08-28T11:42:38.752Z,9.40
2022-08-28T11:46:12.984Z,7.90
2022-08-28T11:49:42.340Z,4.80
2022-08-28T11:53:07.351Z,7.83
2022-08-28T11:56:40.397Z,5.40
2022-08-28T12:00:07.206Z,6.97
2022-08-28T12:03:13.832Z,6.27
2022-08-28T12:06:59.177Z,6.43
2022-08-28T12:10:05.293Z,6.67
2022-08-28T12:13:10.062Z,7.93
2022-08-28T12:16:15.908Z,9.90
2022-08-28T12:19:28.791Z,3.47
2022-08-28T12:22:46.252Z,6.30
2022-08-28T12:25:59.706Z,5.67
2022-08-28T12:29:04.431Z,7.20
2022-08-28T12:32:30.217Z,7.33
2022-08-28T12:35:33.070Z,7.43
2022-08-28T12:38:36.309Z,9.63
2022-08-28T12:41:40.520Z,6.53
2022-08-28T12:44:43.485Z,7.27
2022-08-28T12:47:49.715Z,5.80
2022-08-28T12:51:03.220Z,6.90
2022-08-28T12:54:08.292Z,8.30
2022-08-28T12:57:20.642Z,8.57
2022-08-28T13:00:26.370Z,6.00
2022-08-28T13:03:29.645Z,4.50
2022-08-28T13:06:34.922Z,5.07
2022-08-28T13:09:38.249Z,7.03
2022-08-28T13:12:56.273Z,7.80
2022-08-28T13:16:02.526Z,5.60
2022-08-28T13:19:22.496Z,3.80
2022-08-28T13:22:39.663Z,5.57
2022-08-28T13:25:42.442Z,5.07
2022-08-28T13:28:46.542Z,5.23
2022-08-28T13:31:59.706Z,4.60
2022-08-28T13:35:29.254Z,3.97
2022-08-28T13:38:35.513Z,6.50
2022-08-28T13:41:38.692Z,6.07
2022-08-28T13:44:50.763Z,7.60
2022-08-28T13:47:53.725Z,5.20
2022-08-28T13:51:00.594Z,9.63
2022-08-28T13:54:05.866Z,4.67
2022-08-28T13:57:13.392Z,5.07
2022-08-28T14:00:18.486Z,6.53
2022-08-28T14:03:38.226Z,9.33
2022-08-28T14:06:44.330Z,6.80
2022-08-28T14:09:47.108Z,5.37
2022-08-28T14:12:50.036Z,5.37
2022-08-28T14:15:54.340Z,8.40
2022-08-28T14:18:57.243Z,5.03
2022-08-28T14:22:00.996Z,3.57
2022-08-28T14:25:05.526Z,7.70
2022-08-28T14:28:08.249Z,6.50
2022-08-28T14:31:14.591Z,4.87
2022-08-28T14:34:20.413Z,3.83
2022-08-28T14:37:23.574Z,5.37
2022-08-28T14:40:26.337Z,4.17
2022-08-28T14:43:29.605Z,3.37
2022-08-28T14:46:35.611Z,6.03
2022-08-28T14:49:39.391Z,5.80
2022-08-28T14:52:42.176Z,7.00
2022-08-28T14:55:47.111Z,6.83
2022-08-28T14:58:49.901Z,3.17
2022-08-28T15:01:58.167Z,6.03
2022-08-28T15:05:01.157Z,5.40
2022-08-28T15:08:07.461Z,4.60
2022-08-28T15:11:17.882Z,4.63
2022-08-28T15:14:22.081Z,4.40
2022-08-28T15:17:33.426Z,6.77
2022-08-28T15:20:39.527Z,7.07
2022-08-28T15:23:43.060Z,5.00
2022-08-28T15:26:46.883Z,3.50
2022-08-28T15:29:51.448Z,8.30
2022-08-28T15:34:01.404Z,4.67
2022-08-28T15:37:14.253Z,4.87
2022-08-28T15:40:35.827Z,3.67
2022-08-28T15:43:38.905Z,7.13
2022-08-28T15:47:12.546Z,5.13
2022-08-28T15:50:19.998Z,3.60
2022-08-28T15:53:36.562Z,2.13
2022-08-28T15:56:53.832Z,4.70
2022-08-28T15:59:56.954Z,4.03
2022-08-28T16:03:01.029Z,2.37
2022-08-28T16:06:07.563Z,7.00
2022-08-28T16:09:14.350Z,2.63
2022-08-28T16:12:23.115Z,4.30
2022-08-28T16:15:26.374Z,4.93
2022-08-28T16:18:29.163Z,5.03
2022-08-28T16:21:32.024Z,5.63
2022-08-28T16:24:39.083Z,4.83
2022-08-28T16:27:41.836Z,5.60
2022-08-28T16:30:44.593Z,5.37
2022-08-28T16:34:00.127Z,4.77
2022-08-28T16:37:03.045Z,4.87
2022-08-28T16:40:08.978Z,6.60
2022-08-28T16:43:12.609Z,6.10
2022-08-28T16:46:17.759Z,5.47
2022-08-28T16:49:21.053Z,4.13
2022-08-28T16:52:23.915Z,5.43
2022-08-28T16:55:29.187Z,9.20
2022-08-28T16:58:32.234Z,7.43
2022-08-28T17:01:35.148Z,5.60
2022-08-28T17:04:38.327Z,7.67
2022-08-28T17:07:41.070Z,3.70
2022-08-28T17:10:45.147Z,6.50
2022-08-28T17:13:48.592Z,7.83
2022-08-28T17:16:52.352Z,4.53
2022-08-28T17:19:55.554Z,7.13
2022-08-28T17:22:57.317Z,6.43
2022-08-28T17:26:01.773Z,6.53
2022-08-28T17:29:05.948Z,5.87
2022-08-28T17:32:09.052Z,5.30
2022-08-28T17:35:12.471Z,6.63
2022-08-28T17:38:15.673Z,13.40
2022-08-28T17:41:19.942Z,6.73
2022-08-28T17:44:23.306Z,7.30
2022-08-28T17:47:30.689Z,4.67
2022-08-28T17:50:35.785Z,6.37
2022-08-28T17:53:38.552Z,7.20
2022-08-28T17:56:43.760Z,4.57
2022-08-28T17:59:46.638Z,6.73
2022-08-28T18:02:51.774Z,6.83
2022-08-28T18:05:54.722Z,5.70
2022-08-28T18:08:57.416Z,5.70
2022-08-28T18:12:02.056Z,7.67
2022-08-28T18:15:05.960Z,7.30
2022-08-28T18:18:09.135Z,5.57
2022-08-28T18:21:12.164Z,6.43
2022-08-28T18:24:15.299Z,8.27
2022-08-28T18:27:20.280Z,8.80
2022-08-28T18:30:23.046Z,7.33
2022-08-28T18:33:26.298Z,8.07
2022-08-28T18:36:29.439Z,7.03
2022-08-28T18:39:32.226Z,7.17
2022-08-28T18:42:38.638Z,7.43
2022-08-28T18:45:41.901Z,6.60
2022-08-28T18:48:45.195Z,9.33
2022-08-28T18:51:48.159Z,9.40
2022-08-28T18:54:53.631Z,17.00
2022-08-28T18:58:03.493Z,9.07
2022-08-28T19:01:09.770Z,8.13
2022-08-28T19:04:12.628Z,6.70
2022-08-28T19:07:15.593Z,9.83
2022-08-28T19:10:32.469Z,7.37
2022-08-28T19:13:38.723Z,7.30
2022-08-28T19:16:41.559Z,8.43
2022-08-28T19:19:44.293Z,10.10
2022-08-28T19:22:50.726Z,7.17
2022-08-28T19:25:53.733Z,12.90
2022-08-28T19:28:59.148Z,8.40
2022-08-28T19:32:02.255Z,6.37
2022-08-28T19:35:05.719Z,12.50
2022-08-28T19:38:08.439Z,10.23
2022-08-28T19:41:13.171Z,8.40
2022-08-28T19:44:17.293Z,5.80
2022-08-28T19:47:22.253Z,8.53
2022-08-28T19:50:24.995Z,9.93
2022-08-28T19:53:27.747Z,10.10
2022-08-28T19:56:32.440Z,8.90
2022-08-28T19:59:36.568Z,8.00
2022-08-28T20:02:40.308Z,8.93
2022-08-28T20:05:44.239Z,7.57
2022-08-28T20:08:46.979Z,6.00
2022-08-28T20:11:52.614Z,8.43
2022-08-28T20:15:00.117Z,10.53
2022-08-28T20:18:08.082Z,8.97
2022-08-28T20:21:11.892Z,6.00
2022-08-28T20:24:17.644Z,9.20
2022-08-28T20:27:21.147Z,8.33
2022-08-28T20:30:25.256Z,6.63
2022-08-28T20:33:28.108Z,9.53
2022-08-28T20:36:31.549Z,7.77
2022-08-28T20:39:34.348Z,8.60
2022-08-28T20:42:37.277Z,7.57
2022-08-28T20:45:41.665Z,10.30
2022-08-28T20:48:45.099Z,8.87
2022-08-28T20:52:01.168Z,7.43
2022-08-28T20:55:05.047Z,9.20
2022-08-28T20:58:07.911Z,9.07
2022-08-28T21:01:14.160Z,9.60
2022-08-28T21:04:17.513Z,6.30
2022-08-28T21:07:22.282Z,6.57
2022-08-28T21:10:25.304Z,7.47
2022-08-28T21:13:28.114Z,9.10
2022-08-28T21:16:32.278Z,9.17
2022-08-28T21:19:40.178Z,6.27
2022-08-28T21:22:44.298Z,9.87
2022-08-28T21:25:48.365Z,7.93
2022-08-28T21:28:52.395Z,7.97
2022-08-28T21:31:56.531Z,10.70
2022-08-28T21:34:59.484Z,14.23
2022-08-28T21:38:02.469Z,9.97
2022-08-28T21:41:06.347Z,11.67
2022-08-28T21:44:09.788Z,9.07
2022-08-28T21:47:16.461Z,13.87
2022-08-28T21:50:19.546Z,6.17
2022-08-28T21:53:23.002Z,13.17
2022-08-28T21:56:29.142Z,6.57
2022-08-28T21:59:37.749Z,10.57
2022-08-28T22:02:42.220Z,8.90
2022-08-28T22:05:46.668Z,8.80
2022-08-28T22:08:50.336Z,10.83
2022-08-28T22:11:53.442Z,10.73
2022-08-28T22:14:56.143Z,8.00
2022-08-28T22:18:00.367Z,8.67
2022-08-28T22:21:20.850Z,6.13
2022-08-28T22:24:23.957Z,7.80
2022-08-28T22:27:27.176Z,8.40
2022-08-28T22:30:29.883Z,6.33
2022-08-28T22:33:36.638Z,9.03
2022-08-28T22:36:39.859Z,8.10
2022-08-28T22:39:43.423Z,9.43
2022-08-28T22:42:46.415Z,7.87
2022-08-28T22:45:49.338Z,8.53
2022-08-28T22:48:53.840Z,7.30
2022-08-28T22:51:56.627Z,7.00
2022-08-28T22:54:59.553Z,5.83
2022-08-28T22:58:02.851Z,10.60
2022-08-28T23:01:11.167Z,6.00
2022-08-28T23:04:17.278Z,7.10
2022-08-28T23:07:20.088Z,10.07
2022-08-28T23:10:42.120Z,9.00
2022-08-28T23:13:46.384Z,6.30
2022-08-28T23:16:49.335Z,7.63
2022-08-28T23:19:55.463Z,10.57
2022-08-28T23:22:58.429Z,8.73
2022-08-28T23:26:01.785Z,8.83
2022-08-28T23:29:05.140Z,7.87
2022-08-28T23:32:08.454Z,8.00
2022-08-28T23:35:17.221Z,9.37
2022-08-28T23:38:20.784Z,6.03
2022-08-28T23:41:23.966Z,12.87
2022-08-28T23:44:26.726Z,9.87
2022-08-28T23:47:29.800Z,8.40
2022-08-28T23:50:34.061Z,11.70
2022-08-28T23:53:37.504Z,8.53
2022-08-28T23:56:40.413Z,9.87
2022-08-28T23:59:44.057Z,9.53
